sensor_id;sensor_type;location;lat;lon;timestamp;pressure;altitude;pressure_sealevel;temperature;humidity
7730;BME280;3908;52.310;7.230;2022-12-15T00:01:41;51281.97;;;-145.83;100.00
7730;BME280;3908;52.310;7.230;2022-12-15T00:04:46;51330.91;;;-145.83;100.00
7730;BME280;3908;52.310;7.230;2022-12-15T00:07:52;51264.38;;;-145.83;100.00
7730;BME280;3908;52.310;7.230;2022-12-15T00:10:57;51260.47;;;-145.83;100.00
7730;BME280;3908;52.310;7.230;2022-12-15T00:14:04;51270.25;;;-145.83;100.00
7730;BME280;3908;52.310;7.230;2022-12-15T00:17:08;51270.25;;;-145.83;100.00
7730;BME280;3908;52.310;7.230;2022-12-15T00:20:13;51281.97;;;-145.83;100.00
7730;BME280;3908;52.310;7.230;2022-12-15T00:23:19;51283.94;;;-145.83;100.00
7730;BME280;3908;52.310;7.230;2022-12-15T00:26:23;51311.31;;;-145.83;100.00
7730;BME280;3908;52.310;7.230;2022-12-15T00:29:27;51272.22;;;-145.83;100.00
7730;BME280;3908;52.310;7.230;2022-12-15T00:32:32;51264.38;;;-145.83;100.00
7730;BME280;3908;52.310;7.230;2022-12-15T00:35:36;51254.59;;;-145.83;100.00
7730;BME280;3908;52.310;7.230;2022-12-15T00:38:42;51250.69;;;-145.83;100.00
7730;BME280;3908;52.310;7.230;2022-12-15T00:41:29;51274.16;;;-145.83;100.00
7730;BME280;3908;52.310;7.230;2022-12-15T00:44:16;51293.72;;;-145.83;100.00
7730;BME280;3908;52.310;7.230;2022-12-15T00:47:05;51268.28;;;-145.83;100.00
7730;BME280;3908;52.310;7.230;2022-12-15T00:49:51;51250.69;;;-145.83;100.00
7730;BME280;3908;52.310;7.230;2022-12-15T00:52:55;51252.66;;;-145.83;100.00
7730;BME280;3908;52.310;7.230;2022-12-15T00:56:01;51256.56;;;-145.83;100.00
7730;BME280;3908;52.310;7.230;2022-12-15T00:59:06;51283.94;;;-145.83;100.00
7730;BME280;3908;52.310;7.230;2022-12-15T01:02:10;51278.06;;;-145.83;100.00
7730;BME280;3908;52.310;7.230;2022-12-15T01:05:15;51262.44;;;-145.83;100.00
7730;BME280;3908;52.310;7.230;2022-12-15T01:08:19;51270.25;;;-145.83;100.00
7730;BME280;3908;52.310;7.230;2022-12-15T01:11:24;51248.72;;;-145.83;100.00
7730;BME280;3908;52.310;7.230;2022-12-15T01:14:29;51252.66;;;-145.83;100.00
7730;BME280;3908;52.310;7.230;2022-12-15T01:17:34;51278.06;;;-145.83;100.00
7730;BME280;3908;52.310;7.230;2022-12-15T01:20:38;51285.91;;;-145.83;100.00
7730;BME280;3908;52.310;7.230;2022-12-15T01:23:25;51299.59;;;-145.83;100.00
7730;BME280;3908;52.310;7.230;2022-12-15T01:26:14;51278.06;;;-145.83;100.00
7730;BME280;3908;52.310;7.230;2022-12-15T01:29:02;51289.81;;;-145.83;100.00
7730;BME280;3908;52.310;7.230;2022-12-15T01:31:50;51280.03;;;-145.83;100.00
7730;BME280;3908;52.310;7.230;2022-12-15T01:34:37;51246.78;;;-145.83;100.00
7730;BME280;3908;52.310;7.230;2022-12-15T01:37:24;51285.91;;;-145.83;100.00
7730;BME280;3908;52.310;7.230;2022-12-15T01:40:12;51274.16;;;-145.83;100.00
7730;BME280;3908;52.310;7.230;2022-12-15T01:43:19;51274.16;;;-145.83;100.00
7730;BME280;3908;52.310;7.230;2022-12-15T01:46:10;51262.44;;;-145.83;100.00
7730;BME280;3908;52.310;7.230;2022-12-15T01:49:04;51264.38;;;-145.83;100.00
7730;BME280;3908;52.310;7.230;2022-12-15T01:51:59;51283.94;;;-145.83;100.00
7730;BME280;3908;52.310;7.230;2022-12-15T01:54:49;51260.47;;;-145.83;100.00
7730;BME280;3908;52.310;7.230;2022-12-15T01:57:39;51260.47;;;-145.83;100.00
7730;BME280;3908;52.310;7.230;2022-12-15T02:00:26;51305.47;;;-145.83;100.00
7730;BME280;3908;52.310;7.230;2022-12-15T02:03:14;51311.31;;;-145.83;100.00
7730;BME280;3908;52.310;7.230;2022-12-15T02:06:02;51305.47;;;-145.83;100.00
7730;BME280;3908;52.310;7.230;2022-12-15T02:08:52;51283.94;;;-145.83;100.00
7730;BME280;3908;52.310;7.230;2022-12-15T02:11:53;51256.56;;;-145.83;100.00
7730;BME280;3908;52.310;7.230;2022-12-15T02:14:54;51305.47;;;-145.83;100.00
7730;BME280;3908;52.310;7.230;2022-12-15T02:17:50;51291.75;;;-145.83;100.00
7730;BME280;3908;52.310;7.230;2022-12-15T02:20:58;51266.34;;;-145.83;100.00
7730;BME280;3908;52.310;7.230;2022-12-15T02:24:12;51270.25;;;-145.83;100.00
7730;BME280;3908;52.310;7.230;2022-12-15T02:30:44;51272.22;;;-145.83;100.00
7730;BME280;3908;52.310;7.230;2022-12-15T02:33:59;51285.91;;;-145.83;100.00
7730;BME280;3908;52.310;7.230;2022-12-15T02:36:54;51246.78;;;-145.83;100.00
7730;BME280;3908;52.310;7.230;2022-12-15T02:39:43;51272.22;;;-145.83;100.00
7730;BME280;3908;52.310;7.230;2022-12-15T02:42:32;51264.38;;;-145.83;100.00
7730;BME280;3908;52.310;7.230;2022-12-15T02:45:31;51301.53;;;-145.83;100.00
7730;BME280;3908;52.310;7.230;2022-12-15T02:48:27;51323.06;;;-145.83;100.00
7730;BME280;3908;52.310;7.230;2022-12-15T02:51:30;51264.38;;;-145.83;100.00
7730;BME280;3908;52.310;7.230;2022-12-15T02:54:34;51305.47;;;-145.83;100.00
7730;BME280;3908;52.310;7.230;2022-12-15T02:57:26;51280.03;;;-145.83;100.00
7730;BME280;3908;52.310;7.230;2022-12-15T03:00:17;51289.81;;;-145.83;100.00
7730;BME280;3908;52.310;7.230;2022-12-15T03:03:05;51264.38;;;-145.83;100.00
7730;BME280;3908;52.310;7.230;2022-12-15T03:05:55;51258.50;;;-145.83;100.00
7730;BME280;3908;52.310;7.230;2022-12-15T03:08:42;51295.69;;;-145.83;100.00
7730;BME280;3908;52.310;7.230;2022-12-15T03:11:29;51280.03;;;-145.83;100.00
7730;BME280;3908;52.310;7.230;2022-12-15T03:14:16;51270.25;;;-145.83;100.00
7730;BME280;3908;52.310;7.230;2022-12-15T03:17:04;51272.22;;;-145.83;100.00
7730;BME280;3908;52.310;7.230;2022-12-15T03:19:52;51305.47;;;-145.83;100.00
7730;BME280;3908;52.310;7.230;2022-12-15T03:22:40;51252.66;;;-145.83;100.00
7730;BME280;3908;52.310;7.230;2022-12-15T03:25:27;51276.13;;;-145.83;100.00
7730;BME280;3908;52.310;7.230;2022-12-15T03:28:14;51258.50;;;-145.83;100.00
7730;BME280;3908;52.310;7.230;2022-12-15T03:31:01;51276.13;;;-145.83;100.00
7730;BME280;3908;52.310;7.230;2022-12-15T03:33:48;51242.84;;;-145.83;100.00
7730;BME280;3908;52.310;7.230;2022-12-15T03:36:35;51264.38;;;-145.83;100.00
7730;BME280;3908;52.310;7.230;2022-12-15T03:39:25;51297.63;;;-145.83;100.00
7730;BME280;3908;52.310;7.230;2022-12-15T03:42:12;51285.91;;;-145.83;100.00
7730;BME280;3908;52.310;7.230;2022-12-15T03:45:21;51260.47;;;-145.83;100.00
7730;BME280;3908;52.310;7.230;2022-12-15T03:48:08;51315.25;;;-145.83;100.00
7730;BME280;3908;52.310;7.230;2022-12-15T03:50:55;51287.84;;;-145.83;100.00
7730;BME280;3908;52.310;7.230;2022-12-15T03:53:43;51264.38;;;-145.83;100.00
7730;BME280;3908;52.310;7.230;2022-12-15T03:56:33;51299.59;;;-145.83;100.00
7730;BME280;3908;52.310;7.230;2022-12-15T03:59:20;51287.84;;;-145.83;100.00
7730;BME280;3908;52.310;7.230;2022-12-15T04:02:08;51285.91;;;-145.83;100.00
7730;BME280;3908;52.310;7.230;2022-12-15T04:04:59;51293.72;;;-145.83;100.00
7730;BME280;3908;52.310;7.230;2022-12-15T04:07:46;51276.13;;;-145.83;100.00
7730;BME280;3908;52.310;7.230;2022-12-15T04:10:34;51274.16;;;-145.83;100.00
7730;BME280;3908;52.310;7.230;2022-12-15T04:13:22;51301.53;;;-145.83;100.00
7730;BME280;3908;52.310;7.230;2022-12-15T04:16:09;51280.03;;;-145.83;100.00
7730;BME280;3908;52.310;7.230;2022-12-15T04:18:57;51281.97;;;-145.83;100.00
7730;BME280;3908;52.310;7.230;2022-12-15T04:22:02;51289.81;;;-145.83;100.00
7730;BME280;3908;52.310;7.230;2022-12-15T04:24:49;51297.63;;;-145.83;100.00
7730;BME280;3908;52.310;7.230;2022-12-15T04:27:53;51270.25;;;-145.83;100.00
7730;BME280;3908;52.310;7.230;2022-12-15T04:31:01;51254.59;;;-145.83;100.00
7730;BME280;3908;52.310;7.230;2022-12-15T04:34:10;51325.03;;;-145.83;100.00
7730;BME280;3908;52.310;7.230;2022-12-15T04:37:15;51280.03;;;-145.83;100.00
7730;BME280;3908;52.310;7.230;2022-12-15T04:40:19;51321.09;;;-145.83;100.00
7730;BME280;3908;52.310;7.230;2022-12-15T04:43:24;51242.84;;;-145.83;100.00
7730;BME280;3908;52.310;7.230;2022-12-15T04:46:30;51311.31;;;-145.83;100.00
7730;BME280;3908;52.310;7.230;2022-12-15T04:49:34;51274.16;;;-145.83;100.00
7730;BME280;3908;52.310;7.230;2022-12-15T04:52:39;51268.28;;;-145.83;100.00
7730;BME280;3908;52.310;7.230;2022-12-15T04:55:43;51278.06;;;-145.83;100.00
7730;BME280;3908;52.310;7.230;2022-12-15T04:58:48;51281.97;;;-145.83;100.00
7730;BME280;3908;52.310;7.230;2022-12-15T05:01:53;51258.50;;;-145.83;100.00
7730;BME280;3908;52.310;7.230;2022-12-15T05:04:58;51285.91;;;-145.83;100.00
7730;BME280;3908;52.310;7.230;2022-12-15T05:08:02;51299.59;;;-145.83;100.00
7730;BME280;3908;52.310;7.230;2022-12-15T05:11:07;51268.28;;;-145.83;100.00
7730;BME280;3908;52.310;7.230;2022-12-15T05:14:11;51272.22;;;-145.83;100.00
7730;BME280;3908;52.310;7.230;2022-12-15T05:17:17;51252.66;;;-145.83;100.00
7730;BME280;3908;52.310;7.230;2022-12-15T05:20:22;51297.63;;;-145.83;100.00
7730;BME280;3908;52.310;7.230;2022-12-15T05:23:26;51289.81;;;-145.83;100.00
7730;BME280;3908;52.310;7.230;2022-12-15T05:26:31;51280.03;;;-145.83;100.00
7730;BME280;3908;52.310;7.230;2022-12-15T05:29:35;51301.53;;;-145.83;100.00
7730;BME280;3908;52.310;7.230;2022-12-15T05:32:40;51270.25;;;-145.83;100.00
7730;BME280;3908;52.310;7.230;2022-12-15T05:35:27;51291.75;;;-145.83;100.00
7730;BME280;3908;52.310;7.230;2022-12-15T05:38:14;51266.34;;;-145.83;100.00
7730;BME280;3908;52.310;7.230;2022-12-15T05:41:03;51280.03;;;-145.83;100.00
7730;BME280;3908;52.310;7.230;2022-12-15T05:43:50;51299.59;;;-145.83;100.00
7730;BME280;3908;52.310;7.230;2022-12-15T05:46:37;51295.69;;;-145.83;100.00
7730;BME280;3908;52.310;7.230;2022-12-15T05:49:26;51252.66;;;-145.83;100.00
7730;BME280;3908;52.310;7.230;2022-12-15T05:52:13;51264.38;;;-145.83;100.00
7730;BME280;3908;52.310;7.230;2022-12-15T05:54:59;51293.72;;;-145.83;100.00
7730;BME280;3908;52.310;7.230;2022-12-15T05:57:50;51274.16;;;-145.83;100.00
7730;BME280;3908;52.310;7.230;2022-12-15T06:00:37;51248.72;;;-145.83;100.00
7730;BME280;3908;52.310;7.230;2022-12-15T06:03:24;51262.44;;;-145.83;100.00
7730;BME280;3908;52.310;7.230;2022-12-15T06:06:13;51254.59;;;-145.83;100.00
7730;BME280;3908;52.310;7.230;2022-12-15T06:09:00;51283.94;;;-145.83;100.00
7730;BME280;3908;52.310;7.230;2022-12-15T06:11:48;51280.03;;;-145.83;100.00
7730;BME280;3908;52.310;7.230;2022-12-15T06:14:35;51264.38;;;-145.83;100.00
7730;BME280;3908;52.310;7.230;2022-12-15T06:17:22;51323.06;;;-145.83;100.00
7730;BME280;3908;52.310;7.230;2022-12-15T06:20:10;51246.78;;;-145.83;100.00
7730;BME280;3908;52.310;7.230;2022-12-15T06:22:58;51274.16;;;-145.83;100.00
7730;BME280;3908;52.310;7.230;2022-12-15T06:25:45;51266.34;;;-145.83;100.00
7730;BME280;3908;52.310;7.230;2022-12-15T06:28:32;51295.69;;;-145.83;100.00
7730;BME280;3908;52.310;7.230;2022-12-15T06:31:20;51283.94;;;-145.83;100.00
7730;BME280;3908;52.310;7.230;2022-12-15T06:34:10;51323.06;;;-145.83;100.00
7730;BME280;3908;52.310;7.230;2022-12-15T06:37:00;51274.16;;;-145.83;100.00
7730;BME280;3908;52.310;7.230;2022-12-15T06:39:49;51285.91;;;-145.83;100.00
7730;BME280;3908;52.310;7.230;2022-12-15T06:42:38;51274.16;;;-145.83;100.00
7730;BME280;3908;52.310;7.230;2022-12-15T06:45:26;51250.69;;;-145.83;100.00
7730;BME280;3908;52.310;7.230;2022-12-15T06:48:13;51278.06;;;-145.83;100.00
7730;BME280;3908;52.310;7.230;2022-12-15T06:51:01;51217.44;;;-145.83;100.00
7730;BME280;3908;52.310;7.230;2022-12-15T06:53:49;51280.03;;;-145.83;100.00
7730;BME280;3908;52.310;7.230;2022-12-15T06:56:40;51291.75;;;-145.83;100.00
7730;BME280;3908;52.310;7.230;2022-12-15T06:59:28;51295.69;;;-145.83;100.00
7730;BME280;3908;52.310;7.230;2022-12-15T07:02:15;51313.28;;;-145.83;100.00
7730;BME280;3908;52.310;7.230;2022-12-15T07:05:05;51274.16;;;-145.83;100.00
7730;BME280;3908;52.310;7.230;2022-12-15T07:07:53;51258.50;;;-145.83;100.00
7730;BME280;3908;52.310;7.230;2022-12-15T07:10:54;51291.75;;;-145.83;100.00
7730;BME280;3908;52.310;7.230;2022-12-15T07:13:47;51272.22;;;-145.83;100.00
7730;BME280;3908;52.310;7.230;2022-12-15T07:16:37;51319.16;;;-145.83;100.00
7730;BME280;3908;52.310;7.230;2022-12-15T07:19:27;51299.59;;;-145.83;100.00
7730;BME280;3908;52.310;7.230;2022-12-15T07:22:14;51283.94;;;-145.83;100.00
7730;BME280;3908;52.310;7.230;2022-12-15T07:25:01;51276.13;;;-145.83;100.00
7730;BME280;3908;52.310;7.230;2022-12-15T07:27:48;51254.59;;;-145.83;100.00
7730;BME280;3908;52.310;7.230;2022-12-15T07:30:40;51293.72;;;-145.83;100.00
7730;BME280;3908;52.310;7.230;2022-12-15T07:33:27;51313.28;;;-145.83;100.00
7730;BME280;3908;52.310;7.230;2022-12-15T07:36:15;51307.41;;;-145.83;100.00
7730;BME280;3908;52.310;7.230;2022-12-15T07:39:03;51254.59;;;-145.83;100.00
7730;BME280;3908;52.310;7.230;2022-12-15T07:41:52;51262.44;;;-145.83;100.00
7730;BME280;3908;52.310;7.230;2022-12-15T07:44:39;51289.81;;;-145.83;100.00
7730;BME280;3908;52.310;7.230;2022-12-15T07:47:28;51309.38;;;-145.83;100.00
7730;BME280;3908;52.310;7.230;2022-12-15T07:50:17;51268.28;;;-145.83;100.00
7730;BME280;3908;52.310;7.230;2022-12-15T07:53:10;51254.59;;;-145.83;100.00
7730;BME280;3908;52.310;7.230;2022-12-15T07:55:58;51252.66;;;-145.83;100.00
7730;BME280;3908;52.310;7.230;2022-12-15T07:58:46;51280.03;;;-145.83;100.00
7730;BME280;3908;52.310;7.230;2022-12-15T08:01:35;51280.03;;;-145.83;100.00
7730;BME280;3908;52.310;7.230;2022-12-15T08:04:24;51254.59;;;-145.83;100.00
7730;BME280;3908;52.310;7.230;2022-12-15T08:07:13;51268.28;;;-145.83;100.00
7730;BME280;3908;52.310;7.230;2022-12-15T08:10:02;51321.09;;;-145.83;100.00
7730;BME280;3908;52.310;7.230;2022-12-15T08:12:49;51272.22;;;-145.83;100.00
7730;BME280;3908;52.310;7.230;2022-12-15T08:15:36;51281.97;;;-145.83;100.00
7730;BME280;3908;52.310;7.230;2022-12-15T08:18:24;51309.38;;;-145.83;100.00
7730;BME280;3908;52.310;7.230;2022-12-15T08:21:15;51280.03;;;-145.83;100.00
7730;BME280;3908;52.310;7.230;2022-12-15T08:24:03;51311.31;;;-145.83;100.00
7730;BME280;3908;52.310;7.230;2022-12-15T08:26:50;51315.25;;;-145.83;100.00
7730;BME280;3908;52.310;7.230;2022-12-15T08:29:37;51276.13;;;-145.83;100.00
7730;BME280;3908;52.310;7.230;2022-12-15T08:32:26;51305.47;;;-145.83;100.00
7730;BME280;3908;52.310;7.230;2022-12-15T08:35:16;51317.19;;;-145.83;100.00
7730;BME280;3908;52.310;7.230;2022-12-15T08:38:04;51268.28;;;-145.83;100.00
7730;BME280;3908;52.310;7.230;2022-12-15T08:40:51;51291.75;;;-145.83;100.00
7730;BME280;3908;52.310;7.230;2022-12-15T08:43:42;51299.59;;;-145.83;100.00
7730;BME280;3908;52.310;7.230;2022-12-15T08:46:31;51317.19;;;-145.83;100.00
7730;BME280;3908;52.310;7.230;2022-12-15T08:49:19;51299.59;;;-145.83;100.00
7730;BME280;3908;52.310;7.230;2022-12-15T08:52:10;51281.97;;;-145.83;100.00
7730;BME280;3908;52.310;7.230;2022-12-15T08:54:59;51307.41;;;-145.83;100.00
7730;BME280;3908;52.310;7.230;2022-12-15T08:57:52;51280.03;;;-145.83;100.00
7730;BME280;3908;52.310;7.230;2022-12-15T09:00:40;51321.09;;;-145.83;100.00
7730;BME280;3908;52.310;7.230;2022-12-15T09:03:27;51330.91;;;-145.83;100.00
7730;BME280;3908;52.310;7.230;2022-12-15T09:06:16;51309.38;;;-145.83;100.00
7730;BME280;3908;52.310;7.230;2022-12-15T09:09:07;51340.69;;;-145.83;100.00
7730;BME280;3908;52.310;7.230;2022-12-15T09:11:55;51319.16;;;-145.83;100.00
7730;BME280;3908;52.310;7.230;2022-12-15T09:14:42;51336.75;;;-145.83;100.00
7730;BME280;3908;52.310;7.230;2022-12-15T09:17:30;51323.06;;;-145.83;100.00
7730;BME280;3908;52.310;7.230;2022-12-15T09:20:20;51325.03;;;-145.83;100.00
7730;BME280;3908;52.310;7.230;2022-12-15T09:23:07;51358.28;;;-145.83;100.00
7730;BME280;3908;52.310;7.230;2022-12-15T09:25:58;51325.03;;;-145.83;100.00
7730;BME280;3908;52.310;7.230;2022-12-15T09:28:48;51340.69;;;-145.83;100.00
7730;BME280;3908;52.310;7.230;2022-12-15T09:31:36;51315.25;;;-145.83;100.00
7730;BME280;3908;52.310;7.230;2022-12-15T09:34:24;51325.03;;;-145.83;100.00
7730;BME280;3908;52.310;7.230;2022-12-15T09:37:12;51336.75;;;-145.83;100.00
7730;BME280;3908;52.310;7.230;2022-12-15T09:40:00;51317.19;;;-145.83;100.00
7730;BME280;3908;52.310;7.230;2022-12-15T09:42:51;51350.47;;;-145.83;100.00
7730;BME280;3908;52.310;7.230;2022-12-15T09:45:46;51323.06;;;-145.83;100.00
7730;BME280;3908;52.310;7.230;2022-12-15T09:48:39;51356.31;;;-145.83;100.00
7730;BME280;3908;52.310;7.230;2022-12-15T09:51:32;51328.94;;;-145.83;100.00
7730;BME280;3908;52.310;7.230;2022-12-15T09:54:22;51354.38;;;-145.83;100.00
7730;BME280;3908;52.310;7.230;2022-12-15T09:57:19;51301.53;;;-145.83;100.00
7730;BME280;3908;52.310;7.230;2022-12-15T10:00:15;51325.03;;;-145.83;100.00
7730;BME280;3908;52.310;7.230;2022-12-15T10:03:34;51346.53;;;-145.83;100.00
7730;BME280;3908;52.310;7.230;2022-12-15T10:06:30;51348.50;;;-145.83;100.00
7730;BME280;3908;52.310;7.230;2022-12-15T10:09:21;51370.03;;;-145.83;100.00
7730;BME280;3908;52.310;7.230;2022-12-15T10:12:16;51323.06;;;-145.83;100.00
7730;BME280;3908;52.310;7.230;2022-12-15T10:15:13;51371.97;;;-145.83;100.00
7730;BME280;3908;52.310;7.230;2022-12-15T10:18:09;51342.63;;;-145.83;100.00
7730;BME280;3908;52.310;7.230;2022-12-15T10:21:01;51346.53;;;-145.83;100.00
7730;BME280;3908;52.310;7.230;2022-12-15T10:23:48;51358.28;;;-145.83;100.00
7730;BME280;3908;52.310;7.230;2022-12-15T10:26:38;51383.72;;;-145.83;100.00
7730;BME280;3908;52.310;7.230;2022-12-15T10:29:35;51368.06;;;-145.83;100.00
7730;BME280;3908;52.310;7.230;2022-12-15T10:32:37;51389.59;;;-145.83;100.00
7730;BME280;3908;52.310;7.230;2022-12-15T10:35:30;51389.59;;;-145.83;100.00
7730;BME280;3908;52.310;7.230;2022-12-15T10:38:24;51381.75;;;-145.83;100.00
7730;BME280;3908;52.310;7.230;2022-12-15T10:41:13;51405.22;;;-145.83;100.00
7730;BME280;3908;52.310;7.230;2022-12-15T10:44:02;51340.69;;;-145.83;100.00
7730;BME280;3908;52.310;7.230;2022-12-15T10:46:54;51385.66;;;-145.83;100.00
7730;BME280;3908;52.310;7.230;2022-12-15T10:49:41;51375.88;;;-145.83;100.00
7730;BME280;3908;52.310;7.230;2022-12-15T10:52:34;51364.16;;;-145.83;100.00
7730;BME280;3908;52.310;7.230;2022-12-15T10:55:32;51362.19;;;-145.83;100.00
7730;BME280;3908;52.310;7.230;2022-12-15T10:58:23;51420.88;;;-145.83;100.00
7730;BME280;3908;52.310;7.230;2022-12-15T11:01:15;51362.19;;;-145.83;100.00
7730;BME280;3908;52.310;7.230;2022-12-15T11:04:12;51371.97;;;-145.83;100.00
7730;BME280;3908;52.310;7.230;2022-12-15T11:07:12;51358.28;;;-145.83;100.00
7730;BME280;3908;52.310;7.230;2022-12-15T11:10:01;51340.69;;;-145.83;100.00
7730;BME280;3908;52.310;7.230;2022-12-15T11:12:59;51377.84;;;-145.83;100.00
7730;BME280;3908;52.310;7.230;2022-12-15T11:16:09;51379.81;;;-145.83;100.00
7730;BME280;3908;52.310;7.230;2022-12-15T11:19:04;51375.88;;;-145.83;100.00
7730;BME280;3908;52.310;7.230;2022-12-15T11:21:59;51395.44;;;-145.83;100.00
7730;BME280;3908;52.310;7.230;2022-12-15T11:24:49;51385.66;;;-145.83;100.00
7730;BME280;3908;52.310;7.230;2022-12-15T11:27:40;51399.38;;;-145.83;100.00
7730;BME280;3908;52.310;7.230;2022-12-15T11:30:34;51428.72;;;-145.83;100.00
7730;BME280;3908;52.310;7.230;2022-12-15T11:33:24;51373.94;;;-145.83;100.00
7730;BME280;3908;52.310;7.230;2022-12-15T11:36:19;51379.81;;;-145.83;100.00
7730;BME280;3908;52.310;7.230;2022-12-15T11:39:18;51360.22;;;-145.83;100.00
7730;BME280;3908;52.310;7.230;2022-12-15T11:42:14;51389.59;;;-145.83;100.00
7730;BME280;3908;52.310;7.230;2022-12-15T11:45:17;51383.72;;;-145.83;100.00
7730;BME280;3908;52.310;7.230;2022-12-15T11:48:12;51413.06;;;-145.83;100.00
7730;BME280;3908;52.310;7.230;2022-12-15T11:51:04;51360.22;;;-145.83;100.00
7730;BME280;3908;52.310;7.230;2022-12-15T11:54:10;51389.59;;;-145.83;100.00
7730;BME280;3908;52.310;7.230;2022-12-15T11:57:06;51362.19;;;-145.83;100.00
7730;BME280;3908;52.310;7.230;2022-12-15T12:00:04;51411.09;;;-145.83;100.00
7730;BME280;3908;52.310;7.230;2022-12-15T12:03:13;51354.38;;;-145.83;100.00
7730;BME280;3908;52.310;7.230;2022-12-15T12:06:09;51358.28;;;-145.83;100.00
7730;BME280;3908;52.310;7.230;2022-12-15T12:09:32;51354.38;;;-145.83;100.00
7730;BME280;3908;52.310;7.230;2022-12-15T12:12:26;51415.00;;;-145.83;100.00
7730;BME280;3908;52.310;7.230;2022-12-15T12:15:25;51407.19;;;-145.83;100.00
7730;BME280;3908;52.310;7.230;2022-12-15T12:18:18;51387.63;;;-145.83;100.00
7730;BME280;3908;52.310;7.230;2022-12-15T12:21:09;51403.28;;;-145.83;100.00
7730;BME280;3908;52.310;7.230;2022-12-15T12:24:01;51375.88;;;-145.83;100.00
7730;BME280;3908;52.310;7.230;2022-12-15T12:26:55;51383.72;;;-145.83;100.00
7730;BME280;3908;52.310;7.230;2022-12-15T12:29:45;51407.19;;;-145.83;100.00
7730;BME280;3908;52.310;7.230;2022-12-15T12:32:42;51411.09;;;-145.83;100.00
7730;BME280;3908;52.310;7.230;2022-12-15T12:35:37;51360.22;;;-145.83;100.00
7730;BME280;3908;52.310;7.230;2022-12-15T12:38:29;51379.81;;;-145.83;100.00
7730;BME280;3908;52.310;7.230;2022-12-15T12:41:25;51432.63;;;-145.83;100.00
7730;BME280;3908;52.310;7.230;2022-12-15T12:44:22;51377.84;;;-145.83;100.00
7730;BME280;3908;52.310;7.230;2022-12-15T12:47:20;51405.22;;;-145.83;100.00
7730;BME280;3908;52.310;7.230;2022-12-15T12:50:14;51416.97;;;-145.83;100.00
7730;BME280;3908;52.310;7.230;2022-12-15T12:53:23;51403.28;;;-145.83;100.00
7730;BME280;3908;52.310;7.230;2022-12-15T12:56:31;51434.56;;;-145.83;100.00
7730;BME280;3908;52.310;7.230;2022-12-15T12:59:46;51354.38;;;-145.83;100.00
7730;BME280;3908;52.310;7.230;2022-12-15T13:06:19;51368.06;;;-145.83;100.00
7730;BME280;3908;52.310;7.230;2022-12-15T13:09:22;51375.88;;;-145.83;100.00
7730;BME280;3908;52.310;7.230;2022-12-15T13:12:35;51371.97;;;-145.83;100.00
7730;BME280;3908;52.310;7.230;2022-12-15T13:15:36;51364.16;;;-145.83;100.00
7730;BME280;3908;52.310;7.230;2022-12-15T13:18:57;51383.72;;;-145.83;100.00
7730;BME280;3908;52.310;7.230;2022-12-15T13:21:53;51366.09;;;-145.83;100.00
7730;BME280;3908;52.310;7.230;2022-12-15T13:24:46;51379.81;;;-145.83;100.00
7730;BME280;3908;52.310;7.230;2022-12-15T13:27:34;51383.72;;;-145.83;100.00
7730;BME280;3908;52.310;7.230;2022-12-15T13:30:23;51379.81;;;-145.83;100.00
7730;BME280;3908;52.310;7.230;2022-12-15T13:33:14;51413.06;;;-145.83;100.00
7730;BME280;3908;52.310;7.230;2022-12-15T13:36:05;51371.97;;;-145.83;100.00
7730;BME280;3908;52.310;7.230;2022-12-15T13:38:54;51377.84;;;-145.83;100.00
7730;BME280;3908;52.310;7.230;2022-12-15T13:41:51;51364.16;;;-145.83;100.00
7730;BME280;3908;52.310;7.230;2022-12-15T13:44:53;51371.97;;;-145.83;100.00
7730;BME280;3908;52.310;7.230;2022-12-15T13:47:50;51413.06;;;-145.83;100.00
7730;BME280;3908;52.310;7.230;2022-12-15T13:50:46;51422.84;;;-145.83;100.00
7730;BME280;3908;52.310;7.230;2022-12-15T13:53:39;51391.53;;;-145.83;100.00
7730;BME280;3908;52.310;7.230;2022-12-15T13:57:01;51389.59;;;-145.83;100.00
7730;BME280;3908;52.310;7.230;2022-12-15T13:59:56;51373.94;;;-145.83;100.00
7730;BME280;3908;52.310;7.230;2022-12-15T14:02:49;51399.38;;;-145.83;100.00
7730;BME280;3908;52.310;7.230;2022-12-15T14:05:39;51415.00;;;-145.83;100.00
7730;BME280;3908;52.310;7.230;2022-12-15T14:08:29;51366.09;;;-145.83;100.00
7730;BME280;3908;52.310;7.230;2022-12-15T14:11:21;51366.09;;;-145.83;100.00
7730;BME280;3908;52.310;7.230;2022-12-15T14:14:18;51401.31;;;-145.83;100.00
7730;BME280;3908;52.310;7.230;2022-12-15T14:17:08;51413.06;;;-145.83;100.00
7730;BME280;3908;52.310;7.230;2022-12-15T14:20:10;51346.53;;;-145.83;100.00
7730;BME280;3908;52.310;7.230;2022-12-15T14:22:58;51358.28;;;-145.83;100.00
7730;BME280;3908;52.310;7.230;2022-12-15T14:25:53;51379.81;;;-145.83;100.00
7730;BME280;3908;52.310;7.230;2022-12-15T14:28:43;51358.28;;;-145.83;100.00
7730;BME280;3908;52.310;7.230;2022-12-15T14:31:34;51387.63;;;-145.83;100.00
7730;BME280;3908;52.310;7.230;2022-12-15T14:34:26;51358.28;;;-145.83;100.00
7730;BME280;3908;52.310;7.230;2022-12-15T14:37:16;51350.47;;;-145.83;100.00
7730;BME280;3908;52.310;7.230;2022-12-15T14:40:12;51364.16;;;-145.83;100.00
7730;BME280;3908;52.310;7.230;2022-12-15T14:43:00;51370.03;;;-145.83;100.00
7730;BME280;3908;52.310;7.230;2022-12-15T14:45:51;51356.31;;;-145.83;100.00
7730;BME280;3908;52.310;7.230;2022-12-15T14:48:44;51360.22;;;-145.83;100.00
7730;BME280;3908;52.310;7.230;2022-12-15T14:51:39;51366.09;;;-145.83;100.00
7730;BME280;3908;52.310;7.230;2022-12-15T14:54:31;51356.31;;;-145.83;100.00
7730;BME280;3908;52.310;7.230;2022-12-15T14:57:22;51356.31;;;-145.83;100.00
7730;BME280;3908;52.310;7.230;2022-12-15T15:00:25;51352.41;;;-145.83;100.00
7730;BME280;3908;52.310;7.230;2022-12-15T15:03:20;51391.53;;;-145.83;100.00
7730;BME280;3908;52.310;7.230;2022-12-15T15:06:16;51375.88;;;-145.83;100.00
7730;BME280;3908;52.310;7.230;2022-12-15T15:09:19;51371.97;;;-145.83;100.00
7730;BME280;3908;52.310;7.230;2022-12-15T15:12:13;51352.41;;;-145.83;100.00
7730;BME280;3908;52.310;7.230;2022-12-15T15:15:06;51356.31;;;-145.83;100.00
7730;BME280;3908;52.310;7.230;2022-12-15T15:17:55;51368.06;;;-145.83;100.00